Latest Weather Observations for Batchelor

IDD60801

Issued at 8:05 am CST Wednesday 30 July 2014 (issued every 30 minutes, with the page automatically refreshed every 10 minutes)

About weather observations | Map of weather stations | Latest weather observations for NT | Other Formats
Station Details ID: 014272 Name: BATCHELOR AIRPORT Lat: -13.05 Lon: 131.03 Height: 104.0 m
Data from the previous 72 hours. | See also: Recent months at Batchelor
Date/Time
CST
Temp
°C
App
Temp
°C
Dew
Point
Rel
Hum
%
Delta-T
°C
Wind Press
QNH
hPa
Press
MSL
hPa
Rain
since 9 am
mm
Dir
 
Spd
km/h
Gust
km/h
Spd
kts
Gust
kts
30/08:00am 20.7 23.7 18.5 87 1.4 WSW 0 6 0 3 1016.8 - 0.0
30/07:30am 18.1 20.5 17.0 93 0.7 WSW 0 0 0 0 1016.2 1015.7 0.0
30/07:00am 17.6 19.6 16.1 91 0.9 CALM 0 0 0 0 1015.9 - 0.0
30/06:30am 17.6 19.6 15.9 90 1.0 WSW 0 0 0 0 1015.7 1015.2 0.0
30/06:00am 17.4 18.8 14.5 83 1.7 CALM 0 0 0 0 1015.5 1015.0 0.0
30/05:30am 18.1 19.9 15.5 85 1.5 CALM 0 0 0 0 1015.4 1014.9 0.0
30/05:00am 18.2 20.0 15.5 84 1.6 CALM 0 0 0 0 1015.1 - 0.0
30/04:30am 18.2 19.7 14.7 80 2.0 CALM 0 0 0 0 1014.9 1014.4 0.0
30/04:00am 18.6 20.2 14.9 79 2.2 CALM 0 0 0 0 1014.9 - 0.0
30/03:30am 19.0 20.5 14.7 76 2.5 CALM 0 0 0 0 1015.0 1014.5 0.0
30/03:00am 19.2 20.9 15.1 77 2.4 CALM 0 0 0 0 1015.0 1014.5 0.0
30/02:30am 19.5 21.0 14.7 74 2.8 CALM 0 0 0 0 1015.2 1014.7 0.0
30/02:00am 19.4 20.7 14.0 71 3.1 WSW 0 0 0 0 1015.3 - 0.0
30/01:30am 20.0 21.2 13.9 68 3.5 CALM 0 0 0 0 1015.4 1014.9 0.0
30/01:00am 20.8 22.2 14.5 67 3.7 CALM 0 0 0 0 1015.6 - 0.0
30/12:30am 20.8 22.1 14.2 66 3.8 CALM 0 0 0 0 1015.7 1015.2 0.0
30/12:00am 21.2 22.3 13.6 62 4.4 WSW 0 0 0 0 1015.8 1015.3 0.0
 
Date/Time
CST
Temp
°C
App
Temp
°C
Dew
Point
Rel
Hum
%
Delta-T
°C
Wind Press
QNH
hPa
Press
MSL
hPa
Rain
since 9 am
mm
Dir
 
Spd
km/h
Gust
km/h
Spd
kts
Gust
kts
29/11:30pm 22.0 23.1 13.6 59 4.9 CALM 0 0 0 0 1015.7 1015.2 0.0
29/11:00pm 22.9 24.1 13.7 56 5.4 WSW 0 0 0 0 1015.8 - 0.0
29/10:30pm 24.1 24.4 13.3 51 6.3 WSW 4 7 2 4 1015.8 1015.3 0.0
29/10:00pm 25.4 25.8 13.6 48 7.0 N 4 6 2 3 1015.6 - 0.0
29/09:30pm 25.4 25.1 12.6 45 7.4 N 6 7 3 4 1015.4 1014.9 0.0
29/09:00pm 26.3 25.8 12.7 43 7.9 N 7 11 4 6 1015.1 1014.6 0.0
29/08:30pm 24.0 24.2 10.7 43 7.4 CALM 0 2 0 1 1014.7 1014.2 0.0
29/08:00pm 25.3 25.0 10.0 38 8.5 E 2 4 1 2 1014.4 - 0.0
29/07:30pm 26.7 25.8 9.1 33 9.7 E 4 6 2 3 1014.0 1013.5 0.0
29/07:00pm 28.8 27.3 9.0 29 11.0 ESE 7 9 4 5 1013.6 - 0.0
29/06:30pm 30.7 28.0 9.0 26 12.2 ESE 13 19 7 10 1013.2 1012.7 0.0
29/06:00pm 31.5 27.6 8.5 24 12.8 ESE 19 26 10 14 1012.9 1012.4 0.0
29/05:30pm 32.2 28.4 9.1 24 13.1 ESE 19 28 10 15 1012.6 1012.2 0.0
29/05:00pm 32.8 29.9 8.3 22 13.7 E 13 19 7 10 1012.5 - 0.0
29/04:30pm 33.0 29.6 7.8 21 14.0 E 15 30 8 16 1012.3 1011.9 0.0
29/04:00pm 33.2 29.1 7.9 21 14.1 E 19 32 10 17 1012.4 - 0.0
29/03:30pm 33.3 29.6 8.0 21 14.1 E 17 28 9 15 1012.5 1012.1 0.0
29/03:00pm 33.4 28.2 7.4 20 14.4 E 24 35 13 19 1012.8 1012.3 0.0
29/02:30pm 32.9 28.6 7.7 21 14.0 E 20 39 11 21 1013.0 1012.5 0.0
29/02:00pm 33.3 28.3 8.0 21 14.1 E 24 39 13 21 1013.6 - 0.0
29/01:30pm 32.6 28.3 9.4 24 13.2 E 22 30 12 16 1014.1 1013.6 0.0
29/01:00pm 32.1 27.8 10.8 27 12.4 ESE 24 41 13 22 1014.7 - 0.0
29/12:30pm 31.8 26.6 11.6 29 11.8 ESE 30 39 16 21 1015.1 1014.6 0.0
29/12:00pm 30.7 27.6 12.1 32 10.9 E 20 33 11 18 1015.8 1015.3 0.0
29/11:30am 30.3 27.7 13.1 34 10.3 E 19 30 10 16 1016.4 1015.9 0.0
29/11:00am 29.4 27.4 14.0 39 9.3 E 17 26 9 14 1016.9 - 0.0
29/10:30am 28.3 26.4 15.2 44 8.0 ESE 19 32 10 17 1017.2 1016.7 0.0
29/10:00am 26.9 25.8 15.3 49 7.1 E 15 26 8 14 1017.3 - 0.0
29/09:30am 26.3 25.7 15.7 52 6.5 ESE 13 19 7 10 1017.2 1016.7 0.0
29/09:00am 25.4 26.5 17.1 60 5.2 E 7 11 4 6 1017.3 1016.8 0.0
29/08:30am 23.3 25.0 17.1 68 3.8 E 4 4 2 2 1017.1 1016.6 0.0
29/08:00am 21.1 22.8 17.1 78 2.5 E 4 6 2 3 1016.8 - 0.0
29/07:30am 18.4 20.6 16.4 88 1.2 CALM 0 0 0 0 1016.6 1016.1 0.0
29/07:00am 17.5 19.4 15.7 89 1.1 CALM 0 0 0 0 1016.3 - 0.0
29/06:30am 17.5 19.4 15.7 89 1.1 CALM 0 0 0 0 1016.1 1015.6 0.0
29/06:00am 17.7 19.7 15.9 89 1.1 CALM 0 0 0 0 1015.7 1015.2 0.0
29/05:30am 17.4 19.0 15.0 86 1.4 CALM 0 0 0 0 1015.4 1014.9 0.0
29/05:00am 18.1 20.2 16.3 89 1.1 CALM 0 0 0 0 1015.3 - 0.0
29/04:30am 17.9 19.8 15.7 87 1.3 CALM 0 0 0 0 1015.1 1014.6 0.0
29/04:00am 17.9 19.5 14.8 82 1.8 CALM 0 0 0 0 1014.9 - 0.0
29/03:30am 18.7 20.7 15.9 84 1.7 CALM 0 0 0 0 1014.9 1014.4 0.0
29/03:00am 19.3 21.4 16.2 82 1.9 CALM 0 4 0 2 1015.0 1014.5 0.0
29/02:30am 19.3 21.0 16.3 83 1.8 W 2 4 1 2 1015.3 1014.8 0.0
29/02:00am 19.3 20.9 16.0 81 2.0 W 2 4 1 2 1015.3 - 0.0
29/01:30am 19.8 21.9 16.3 80 2.1 CALM 0 0 0 0 1015.6 1015.1 0.0
29/01:00am 20.3 22.4 16.3 78 2.4 CALM 0 0 0 0 1015.6 - 0.0
29/12:30am 20.8 23.0 16.4 76 2.7 CALM 0 0 0 0 1015.6 1015.1 0.0
29/12:00am 21.3 23.7 16.9 76 2.7 CALM 0 0 0 0 1015.6 1015.1 0.0
 
Date/Time
CST
Temp
°C
App
Temp
°C
Dew
Point
Rel
Hum
%
Delta-T
°C
Wind Press
QNH
hPa
Press
MSL
hPa
Rain
since 9 am
mm
Dir
 
Spd
km/h
Gust
km/h
Spd
kts
Gust
kts
28/11:30pm 21.2 23.0 16.4 74 2.9 W 2 4 1 2 1015.7 1015.2 0.0
28/11:00pm 22.2 24.1 16.7 71 3.4 W 2 2 1 1 1015.7 - 0.0
28/10:30pm 23.2 25.1 16.7 67 4.0 W 2 4 1 2 1015.7 1015.2 0.0
28/10:00pm 23.5 25.1 16.8 66 4.1 W 4 6 2 3 1015.7 - 0.0
28/09:30pm 24.0 25.3 17.0 65 4.3 W 6 9 3 5 1015.4 1014.9 0.0
28/09:00pm 24.8 26.1 17.0 62 4.8 WNW 6 11 3 6 1015.3 1014.8 0.0
28/08:30pm 25.6 26.5 16.7 58 5.5 WNW 7 11 4 6 1014.9 1014.4 0.0
28/08:00pm 24.6 24.4 12.9 48 6.8 NE 6 6 3 3 1014.3 - 0.0
28/07:30pm 25.6 26.0 11.4 41 8.1 CALM 0 0 0 0 1013.8 1013.3 0.0
28/07:00pm 27.4 27.1 10.2 34 9.7 E 2 2 1 1 1013.4 - 0.0
28/06:30pm 30.2 29.2 10.2 29 11.4 E 6 9 3 5 1012.9 1012.4 0.0
28/06:00pm 31.4 29.6 9.6 26 12.4 E 9 13 5 7 1012.5 1012.1 0.0
28/05:30pm 32.0 29.7 8.9 24 13.0 E 11 19 6 10 1012.3 1011.9 0.0
28/05:00pm 32.5 29.6 8.0 22 13.6 E 13 20 7 11 1012.1 - 0.0
28/04:30pm 32.5 29.0 7.4 21 13.8 ENE 15 24 8 13 1012.1 1011.7 0.0
28/04:00pm 32.6 29.1 7.4 21 13.9 ESE 15 20 8 11 1012.1 - 0.0
28/03:30pm 33.4 29.3 4.2 16 15.4 E 15 24 8 13 1012.4 1012.0 0.0
28/03:00pm 32.4 28.3 4.2 17 14.7 E 15 26 8 14 1012.6 1012.2 0.0
28/02:30pm 32.7 28.4 5.3 18 14.6 NE 17 19 9 10 1013.2 1012.7 0.0
28/02:00pm 32.4 28.9 7.3 21 13.8 ENE 15 26 8 14 1013.6 - 0.0
28/01:30pm 32.8 27.2 3.7 16 15.1 ESE 22 32 12 17 1014.2 1013.7 0.0
28/01:00pm 32.1 28.7 9.0 24 13.0 ESE 17 26 9 14 1014.5 - 0.0
28/12:30pm 32.0 27.2 8.9 24 13.0 ESE 24 35 13 19 1015.0 1014.5 0.0
28/12:00pm 30.9 26.9 10.3 28 11.8 ESE 22 33 12 18 1015.5 1015.0 0.0
28/11:30am 30.1 25.1 11.1 31 11.0 ESE 28 37 15 20 1016.3 1015.8 0.0
28/11:00am 29.3 23.9 10.9 32 10.6 E 30 39 16 21 1016.6 - 0.0
28/10:30am 28.6 24.4 11.2 34 10.0 E 24 41 13 22 1016.9 1016.4 0.0
28/10:00am 27.5 24.4 11.5 37 9.2 ESE 19 28 10 15 1017.1 - 0.0
28/09:30am 26.8 24.4 12.5 41 8.3 E 17 24 9 13 1017.3 1016.8 0.0
28/09:00am 25.8 25.8 14.3 49 6.9 E 7 9 4 5 1017.2 1016.7 0.0
28/08:30am 24.0 25.1 14.7 56 5.5 WNW 2 6 1 3 1017.0 1016.5 0.0
28/08:00am 21.9 23.4 15.7 68 3.7 WNW 2 4 1 2 1016.8 - 0.0
28/07:30am 19.6 20.6 16.3 81 2.0 WNW 6 6 3 3 1016.6 1016.1 0.0
28/07:00am 18.9 19.8 16.1 84 1.7 WNW 6 7 3 4 1016.4 - 0.0
28/06:30am 18.6 21.0 17.1 91 0.9 CALM 0 6 0 3 1016.2 1015.7 0.0
28/06:00am 18.3 20.7 17.0 92 0.8 CALM 0 0 0 0 1015.8 1015.3 0.0
28/05:30am 18.1 20.3 16.4 90 1.0 CALM 0 0 0 0 1015.6 1015.1 0.0
28/05:00am 18.7 21.2 17.2 91 0.9 CALM 0 0 0 0 1015.4 - 0.0
28/04:30am 18.6 21.0 16.9 90 1.0 CALM 0 0 0 0 1015.2 1014.7 0.0
28/04:00am 18.7 21.1 17.0 90 1.0 CALM 0 0 0 0 1015.1 - 0.0
28/03:30am 19.0 21.5 17.3 90 1.0 CALM 0 0 0 0 1015.2 1014.7 0.0
28/03:00am 19.2 21.7 17.3 89 1.2 CALM 0 0 0 0 1015.3 1014.8 0.0
28/02:30am 19.4 22.0 17.4 88 1.2 CALM 0 0 0 0 1015.6 1015.1 0.0
28/02:00am 19.8 22.3 17.2 85 1.6 CALM 0 0 0 0 1015.8 - 0.0
28/01:30am 20.2 22.9 17.8 86 1.5 CALM 0 0 0 0 1016.1 1015.6 0.0
28/01:00am 20.7 23.6 18.1 85 1.6 CALM 0 0 0 0 1016.2 - 0.0
28/12:30am 20.4 22.9 17.2 82 2.0 CALM 0 0 0 0 1016.4 1015.9 0.0
28/12:00am 21.7 24.5 17.9 79 2.4 CALM 0 0 0 0 1016.3 1015.8 0.0
 
Date/Time
CST
Temp
°C
App
Temp
°C
Dew
Point
Rel
Hum
%
Delta-T
°C
Wind Press
QNH
hPa
Press
MSL
hPa
Rain
since 9 am
mm
Dir
 
Spd
km/h
Gust
km/h
Spd
kts
Gust
kts
27/11:30pm 22.4 24.9 18.2 77 2.6 WNW 2 4 1 2 1016.3 1015.8 0.0
27/11:00pm 23.1 24.9 18.2 74 3.1 WNW 6 6 3 3 1016.5 - 0.0
27/10:30pm 23.6 25.8 18.3 72 3.3 WNW 4 6 2 3 1016.5 1016.0 0.0
27/10:00pm 24.2 26.0 18.4 70 3.7 WNW 6 7 3 4 1016.5 - 0.0
27/09:30pm 25.2 26.8 18.2 65 4.4 W 7 11 4 6 1016.3 1015.8 0.0
27/09:00pm 26.6 28.0 17.7 58 5.6 WNW 7 13 4 7 1016.0 1015.5 0.0
27/08:30pm 27.5 28.2 15.5 48 7.3 N 6 9 3 5 1015.8 1015.3 0.0
27/08:00pm 28.1 27.6 12.5 38 9.1 NE 7 9 4 5 1015.0 - 0.0
27/07:30pm 28.9 28.2 11.5 34 10.1 E 6 7 3 4 1014.3 1013.8 0.0
27/07:00pm 29.7 28.9 11.2 31 10.7 E 6 9 3 5 1013.8 - 0.0
27/06:30pm 30.9 28.7 10.8 29 11.6 E 13 20 7 11 1013.3 1012.8 0.0
27/06:00pm 30.9 29.2 11.3 30 11.4 E 11 15 6 8 1012.9 1012.4 0.0
27/05:30pm 31.5 29.7 10.8 28 12.0 E 11 17 6 9 1012.6 1012.2 0.0
27/05:00pm 32.7 30.6 11.3 27 12.6 E 13 20 7 11 1012.3 - 0.0
27/04:30pm 31.9 28.7 10.0 26 12.5 E 17 32 9 17 1012.4 1012.0 0.0
27/04:00pm 32.5 29.5 10.5 26 12.7 E 17 26 9 14 1012.5 - 0.0
27/03:30pm 32.6 29.4 11.2 27 12.5 ESE 19 28 10 15 1012.8 1012.3 0.0
27/03:00pm 33.3 31.4 11.8 27 12.7 E 13 17 7 9 1013.1 1012.6 0.0
27/02:30pm 32.0 30.1 11.7 28 11.9 E 13 17 7 9 1013.4 1012.9 0.0
27/02:00pm 31.3 28.0 11.7 30 11.5 ESE 20 32 11 17 1014.0 - 0.0
27/01:30pm 31.8 28.5 11.6 29 11.9 E 20 32 11 17 1014.7 1014.2 0.0
27/01:00pm 32.1 29.4 11.8 29 12.0 NE 17 26 9 14 1015.1 - 0.0
27/12:30pm 31.5 28.0 12.3 31 11.4 E 22 35 12 19 1015.8 1015.3 0.0
27/12:00pm 30.5 27.1 12.4 33 10.7 E 22 33 12 18 1016.3 1015.8 0.0
27/11:30am 30.5 27.4 13.3 35 10.3 ESE 22 30 12 16 1016.9 1016.4 0.0
27/11:00am 29.8 26.9 14.0 38 9.5 ESE 22 35 12 19 1017.3 - 0.0
27/10:30am 29.0 26.4 14.8 42 8.6 ESE 22 33 12 18 1017.6 1017.1 0.0
27/10:00am 28.1 25.9 14.3 42 8.3 E 19 28 10 15 1017.8 - 0.0
27/09:30am 27.0 25.2 15.4 49 7.1 ESE 19 24 10 13 1017.8 1017.3 0.0
27/09:00am 24.4 26.4 18.8 71 3.6 S 6 7 3 4 1017.8 1017.3 0.0
27/08:30am 22.5 24.7 19.1 81 2.2 S 6 7 3 4 1017.7 1017.2 0.0

Other Formats:

Comma delimited format used in spreadsheet applications
http://www.bom.gov.au/fwo/IDD60801/IDD60801.94125.axf

JavaScript Object Notation format (JSON) in row-major order
http://www.bom.gov.au/fwo/IDD60801/IDD60801.94125.json